Time;durP1;ratioP1;P1;durP2;ratioP2;P2;SDS_P1;SDS_P2;PMS_P1;PMS_P2;Temp;Humidity;BMP_temperature;BMP_pressure;BME280_temperature;BME280_humidity;BME280_pressure;Samples;Min_cycle;Max_cycle;Signal;HPM_P1;HPM_P2
2021/03/29 00:00:34;;;;;;;7.43;1.77;;;29.60;52.70;;;;;;5057014;28;20412;-71
2021/03/29 00:03:03;;;;;;;13.95;2.05;;;30.10;51.30;;;;;;5083625;28;20056;-69
2021/03/29 00:05:33;;;;;;;14.48;2.30;;;30.00;51.70;;;;;;5081297;28;20021;-71
2021/03/29 00:08:07;;;;;;;17.17;2.00;;;30.10;52.40;;;;;;5089969;28;20036;-73
2021/03/29 00:10:36;;;;;;;11.88;1.60;;;30.40;52.90;;;;;;5095068;28;20032;-71
2021/03/29 00:13:05;;;;;;;6.78;1.13;;;30.40;50.70;;;;;;5083513;28;20033;-73
2021/03/29 00:15:44;;;;;;;8.80;0.90;;;30.60;51.60;;;;;;5082638;28;20668;-72
2021/03/29 00:18:12;;;;;;;4.72;0.60;;;30.80;48.50;;;;;;5093413;28;20077;-73
2021/03/29 00:20:44;;;;;;;4.15;1.08;;;30.50;47.50;;;;;;5085503;28;20033;-69
2021/03/29 00:23:11;;;;;;;6.47;0.82;;;30.40;50.30;;;;;;5095214;28;20431;-73
2021/03/29 00:25:39;;;;;;;6.18;1.00;;;30.20;47.80;;;;;;5102111;28;20434;-71
2021/03/29 00:28:07;;;;;;;9.20;1.85;;;30.00;49.50;;;;;;5083431;28;20032;-72
2021/03/29 00:30:48;;;;;;;7.88;1.45;;;30.00;48.30;;;;;;5097712;27;20079;-72
2021/03/29 00:33:17;;;;;;;10.15;1.45;;;29.30;51.50;;;;;;5108912;27;20520;-72
2021/03/29 00:35:49;;;;;;;15.50;2.25;;;29.70;51.80;;;;;;5107893;28;20107;-70
2021/03/29 00:38:19;;;;;;;6.95;1.65;;;30.20;53.00;;;;;;5106034;27;20035;-73
2021/03/29 00:40:53;;;;;;;8.25;1.70;;;31.00;52.30;;;;;;5107574;28;20032;-70
2021/03/29 00:43:33;;;;;;;6.22;1.13;;;31.30;51.00;;;;;;5105751;27;20836;-70
2021/03/29 00:46:02;;;;;;;6.88;1.25;;;31.60;48.30;;;;;;5099291;28;20043;-70
2021/03/29 00:48:31;;;;;;;6.07;0.65;;;30.80;48.10;;;;;;5100663;28;20032;-72
2021/03/29 00:51:09;;;;;;;8.20;0.95;;;30.80;47.00;;;;;;5111987;28;20521;-72
2021/03/29 00:53:43;;;;;;;6.20;0.70;;;31.30;50.10;;;;;;5102745;27;20047;-73
2021/03/29 00:56:12;;;;;;;8.88;1.55;;;31.50;48.90;;;;;;5095102;28;20048;-74
2021/03/29 00:58:40;;;;;;;4.80;0.88;;;31.60;46.40;;;;;;5099044;28;20457;-74
2021/03/29 01:01:12;;;;;;;3.13;0.57;;;30.60;50.40;;;;;;5101784;28;20046;-70
2021/03/29 01:03:53;;;;;;;5.25;0.60;;;29.60;48.50;;;;;;5100239;28;20016;-70
2021/03/29 01:06:23;;;;;;;2.10;0.57;;;28.90;50.00;;;;;;5103881;28;20125;-72
2021/03/29 01:08:57;;;;;;;3.58;1.70;;;28.90;50.50;;;;;;5101285;27;20034;-71
2021/03/29 01:11:30;;;;;;;2.08;0.50;;;29.90;49.00;;;;;;5101357;28;20080;-73
2021/03/29 01:14:07;;;;;;;3.38;0.40;;;31.10;49.20;;;;;;5094283;27;20034;-74
2021/03/29 01:16:43;;;;;;;6.13;0.70;;;31.90;44.00;;;;;;5098959;28;20027;-74
2021/03/29 01:19:20;;;;;;;5.35;0.50;;;32.30;41.60;;;;;;5096780;28;20043;-73
2021/03/29 01:22:00;;;;;;;2.90;0.40;;;31.50;42.10;;;;;;5102602;28;20085;-73
2021/03/29 01:25:03;;;;;;;3.67;0.52;;;30.30;43.20;;;;;;5098616;28;20039;-71
2021/03/29 01:27:41;;;;;;;5.18;0.40;;;29.30;46.20;;;;;;5098027;27;20035;-71
2021/03/29 01:30:10;;;;;;;5.10;0.60;;;29.00;45.90;;;;;;5095877;27;20565;-71
2021/03/29 01:32:40;;;;;;;8.80;0.75;;;28.50;47.60;;;;;;5096960;28;20023;-72
2021/03/29 01:35:16;;;;;;;4.45;0.85;;;28.00;47.00;;;;;;5102499;28;20029;-73
2021/03/29 01:37:46;;;;;;;4.60;0.52;;;27.20;50.00;;;;;;5110512;28;20435;-71
2021/03/29 01:40:21;;;;;;;2.95;0.60;;;27.00;49.60;;;;;;5100427;28;20107;-72
2021/03/29 01:42:49;;;;;;;3.63;0.60;;;26.90;49.00;;;;;;5106864;28;20127;-72
2021/03/29 01:45:20;;;;;;;2.13;0.30;;;26.70;50.20;;;;;;5105117;28;20060;-70
2021/03/29 01:47:48;;;;;;;3.17;0.93;;;27.60;47.70;;;;;;5105838;28;20043;-71
2021/03/29 01:50:24;;;;;;;4.57;0.50;;;28.10;44.20;;;;;;5098293;27;20039;-71
2021/03/29 01:52:53;;;;;;;8.15;0.80;;;28.70;41.60;;;;;;5103668;28;20058;-71
2021/03/29 01:55:21;;;;;;;3.72;0.63;;;29.60;43.10;;;;;;5100351;28;20404;-70
2021/03/29 01:57:48;;;;;;;6.57;0.73;;;30.40;43.80;;;;;;5095356;28;20176;-71
2021/03/29 02:00:24;;;;;;;3.95;0.55;;;30.40;42.20;;;;;;5097700;27;20069;-70
2021/03/29 02:02:53;;;;;;;2.80;0.63;;;30.80;46.10;;;;;;5095530;28;20051;-72
2021/03/29 02:05:22;;;;;;;3.55;0.70;;;31.20;41.10;;;;;;5099592;28;20533;-71
2021/03/29 02:07:51;;;;;;;4.75;0.50;;;31.50;40.80;;;;;;5096622;28;20039;-72
2021/03/29 02:10:21;;;;;;;3.00;0.45;;;30.20;43.40;;;;;;5100167;28;20068;-70
2021/03/29 02:12:50;;;;;;;5.85;0.70;;;29.70;43.00;;;;;;5097642;28;20106;-74
2021/03/29 02:15:28;;;;;;;2.03;0.43;;;30.10;44.20;;;;;;5099694;28;20023;-69
2021/03/29 02:18:00;;;;;;;3.30;0.47;;;29.20;43.50;;;;;;5091199;28;20658;-69
2021/03/29 02:20:35;;;;;;;2.17;0.40;;;28.30;44.90;;;;;;5099621;28;20059;-70
2021/03/29 02:23:05;;;;;;;7.03;0.65;;;28.40;48.20;;;;;;5094538;28;20439;-70
2021/03/29 02:25:34;;;;;;;4.05;0.60;;;29.50;43.60;;;;;;5100004;28;20100;-71
2021/03/29 02:28:04;;;;;;;3.92;0.88;;;30.50;40.90;;;;;;5092769;28;20047;-72
2021/03/29 02:30:40;;;;;;;4.25;0.60;;;31.20;39.80;;;;;;5075648;28;20050;-70
2021/03/29 02:33:13;;;;;;;3.53;0.45;;;31.90;41.30;;;;;;5095726;27;20028;-71
2021/03/29 02:35:41;;;;;;;4.95;0.40;;;31.50;35.80;;;;;;5080729;28;20056;-70
2021/03/29 02:38:13;;;;;;;4.13;0.57;;;31.10;35.90;;;;;;5097536;28;20032;-71
2021/03/29 02:40:42;;;;;;;3.22;0.40;;;30.80;39.90;;;;;;5094711;27;20036;-71
2021/03/29 02:43:10;;;;;;;0.90;0.30;;;31.10;40.80;;;;;;5102509;28;20039;-71
2021/03/29 02:45:43;;;;;;;6.00;0.63;;;31.50;37.90;;;;;;5091059;28;20580;-71
2021/03/29 02:48:14;;;;;;;2.53;0.40;;;31.60;37.80;;;;;;5096868;27;20114;-71
2021/03/29 02:50:44;;;;;;;3.75;0.30;;;31.70;38.30;;;;;;5097921;28;20028;-71
2021/03/29 02:53:21;;;;;;;2.88;0.50;;;30.90;40.10;;;;;;5091368;28;20122;-71
2021/03/29 02:55:49;;;;;;;1.65;0.28;;;31.00;38.80;;;;;;5094038;28;20466;-71
2021/03/29 02:58:23;;;;;;;4.25;0.40;;;30.60;39.90;;;;;;5097738;28;20032;-69
2021/03/29 03:00:53;;;;;;;5.03;0.82;;;29.70;40.90;;;;;;5090503;27;20023;-71
2021/03/29 03:03:21;;;;;;;3.60;0.50;;;30.30;38.10;;;;;;5098067;28;20023;-70
2021/03/29 03:05:52;;;;;;;2.83;0.50;;;31.10;38.30;;;;;;5077492;28;20028;-71
2021/03/29 03:08:21;;;;;;;4.30;0.30;;;31.50;37.10;;;;;;5096830;28;20029;-71
2021/03/29 03:10:49;;;;;;;2.05;0.50;;;32.20;38.90;;;;;;5092066;28;20035;-69
2021/03/29 03:13:17;;;;;;;3.13;0.60;;;32.60;37.20;;;;;;5093981;28;20039;-70
2021/03/29 03:15:46;;;;;;;3.65;0.40;;;32.70;34.50;;;;;;5097185;28;20095;-69
2021/03/29 03:18:14;;;;;;;4.50;0.68;;;32.90;38.20;;;;;;5096431;28;20028;-69
2021/03/29 03:20:42;;;;;;;3.83;1.20;;;32.90;35.70;;;;;;5095910;27;20051;-69
2021/03/29 03:23:09;;;;;;;3.45;0.45;;;32.90;37.40;;;;;;5095133;28;20105;-70
2021/03/29 03:25:39;;;;;;;1.92;0.60;;;32.80;34.20;;;;;;5100089;28;20016;-70
2021/03/29 03:28:10;;;;;;;3.95;0.40;;;32.80;36.50;;;;;;5095872;28;20085;-71
2021/03/29 03:30:40;;;;;;;2.95;0.32;;;33.10;35.70;;;;;;5093169;28;20246;-70
2021/03/29 03:33:10;;;;;;;4.78;0.70;;;33.20;35.50;;;;;;5095219;28;20035;-71
2021/03/29 03:35:39;;;;;;;2.22;0.35;;;33.30;35.70;;;;;;5096301;28;20034;-70
2021/03/29 03:38:30;;;;;;;5.65;0.80;;;32.60;34.40;;;;;;5095426;28;20086;-69
2021/03/29 03:41:00;;;;;;;3.40;0.45;;;32.70;33.20;;;;;;5100266;28;20024;-73
2021/03/29 03:43:35;;;;;;;1.35;0.40;;;32.20;30.50;;;;;;5099906;28;20048;-72
2021/03/29 03:46:15;;;;;;;2.28;0.47;;;32.20;33.40;;;;;;5092943;28;20020;-72
2021/03/29 03:48:44;;;;;;;4.25;0.40;;;31.90;31.90;;;;;;5093512;28;20027;-73
2021/03/29 03:51:12;;;;;;;0.80;0.20;;;32.30;36.60;;;;;;5099683;28;20528;-71
2021/03/29 03:53:40;;;;;;;3.67;0.60;;;32.30;35.90;;;;;;5097036;28;20028;-70
2021/03/29 03:56:09;;;;;;;6.25;0.70;;;32.60;33.80;;;;;;5095579;28;20050;-71
2021/03/29 03:58:37;;;;;;;2.60;0.70;;;32.50;34.60;;;;;;5101797;28;20024;-71
2021/03/29 04:01:08;;;;;;;3.63;0.40;;;32.40;33.20;;;;;;5097231;28;20081;-71
2021/03/29 04:03:36;;;;;;;1.20;0.30;;;32.20;32.30;;;;;;5103787;28;20027;-72
2021/03/29 04:06:04;;;;;;;2.38;0.40;;;31.90;33.60;;;;;;5085253;28;20105;-71
2021/03/29 04:08:31;;;;;;;3.00;0.30;;;31.80;34.90;;;;;;5096852;28;20034;-70
2021/03/29 04:11:00;;;;;;;2.45;0.50;;;31.70;34.60;;;;;;5099075;27;20056;-70
2021/03/29 04:13:28;;;;;;;2.72;0.43;;;32.00;34.00;;;;;;5102191;28;20024;-73
2021/03/29 04:16:02;;;;;;;5.63;0.57;;;32.10;32.70;;;;;;5106191;27;20030;-72
2021/03/29 04:18:30;;;;;;;5.35;0.60;;;31.90;32.60;;;;;;5099322;28;20031;-74
2021/03/29 04:20:58;;;;;;;3.95;0.40;;;31.80;33.10;;;;;;5102675;28;20034;-74
2021/03/29 04:23:29;;;;;;;1.05;0.30;;;31.80;32.90;;;;;;5105323;28;20030;-73
2021/03/29 04:25:57;;;;;;;1.67;0.50;;;31.90;33.80;;;;;;5099384;28;20595;-71
2021/03/29 04:28:25;;;;;;;1.35;0.30;;;31.90;35.30;;;;;;5099508;28;20020;-72
2021/03/29 04:30:53;;;;;;;1.20;0.25;;;31.90;33.40;;;;;;5099967;27;20092;-71
2021/03/29 04:33:22;;;;;;;2.45;0.30;;;31.40;31.70;;;;;;5100505;27;20035;-71
2021/03/29 04:35:50;;;;;;;1.60;0.65;;;31.40;33.90;;;;;;5099686;28;20016;-70
2021/03/29 04:38:18;;;;;;;2.38;0.30;;;31.40;31.80;;;;;;5099631;28;20621;-70
2021/03/29 04:40:45;;;;;;;1.85;0.50;;;31.30;33.30;;;;;;5098634;28;20032;-70
2021/03/29 04:43:13;;;;;;;1.48;0.20;;;31.20;32.30;;;;;;5100227;28;20031;-72
2021/03/29 04:45:40;;;;;;;2.67;0.20;;;31.30;33.50;;;;;;5099371;27;20355;-73
2021/03/29 04:48:08;;;;;;;2.97;0.82;;;31.40;33.90;;;;;;5103301;28;20042;-70
2021/03/29 04:50:36;;;;;;;2.10;0.65;;;31.20;33.00;;;;;;5100678;28;20027;-72
2021/03/29 04:53:05;;;;;;;1.35;0.52;;;31.10;34.20;;;;;;5099354;28;20032;-70
2021/03/29 04:55:32;;;;;;;1.45;0.20;;;31.00;34.50;;;;;;5101723;27;20035;-69
2021/03/29 04:58:00;;;;;;;4.00;0.52;;;30.90;33.30;;;;;;5097135;28;20028;-74
2021/03/29 05:00:27;;;;;;;1.20;0.22;;;30.70;33.20;;;;;;5097811;27;20939;-71
2021/03/29 05:02:54;;;;;;;0.40;0.22;;;30.30;34.20;;;;;;5096377;28;20028;-70
2021/03/29 05:05:22;;;;;;;1.92;0.30;;;30.40;34.00;;;;;;5100244;28;20037;-72
2021/03/29 05:07:49;;;;;;;1.85;0.20;;;30.40;35.10;;;;;;5100275;28;20088;-69
2021/03/29 05:10:17;;;;;;;1.77;0.30;;;30.60;35.30;;;;;;5098229;27;20023;-70
2021/03/29 05:12:44;;;;;;;0.70;0.20;;;30.70;35.10;;;;;;5099680;27;20024;-72
2021/03/29 05:15:13;;;;;;;4.25;0.30;;;30.60;34.20;;;;;;5097764;27;20042;-74
2021/03/29 05:17:42;;;;;;;2.53;0.20;;;30.70;34.40;;;;;;5099509;27;20720;-73
2021/03/29 05:20:10;;;;;;;0.90;0.20;;;30.50;32.70;;;;;;5105021;28;20031;-73
2021/03/29 05:22:38;;;;;;;4.90;0.60;;;30.30;33.20;;;;;;5104149;28;20154;-72
2021/03/29 05:25:06;;;;;;;0.88;0.20;;;30.20;32.30;;;;;;5104094;27;20601;-71
2021/03/29 05:27:33;;;;;;;0.60;0.20;;;30.10;32.70;;;;;;5104784;28;20126;-72
2021/03/29 05:30:00;;;;;;;1.50;0.20;;;30.00;33.50;;;;;;5100684;27;20093;-74
2021/03/29 05:32:29;;;;;;;1.55;0.30;;;29.90;33.10;;;;;;5102094;28;20028;-71
2021/03/29 05:35:00;;;;;;;1.90;0.13;;;29.80;32.30;;;;;;5097962;28;20078;-71
2021/03/29 05:37:29;;;;;;;2.40;0.30;;;29.70;33.80;;;;;;5095891;28;20027;-71
2021/03/29 05:39:59;;;;;;;2.65;0.40;;;29.60;33.60;;;;;;5099052;28;20031;-72
2021/03/29 05:42:29;;;;;;;0.45;0.10;;;29.60;33.30;;;;;;5097894;28;20028;-70
2021/03/29 05:45:09;;;;;;;0.65;0.20;;;29.70;33.10;;;;;;5101368;27;20482;-70
2021/03/29 05:47:39;;;;;;;1.08;0.10;;;29.60;33.30;;;;;;5107812;28;20042;-71
2021/03/29 05:50:16;;;;;;;1.10;0.10;;;29.60;32.70;;;;;;5108048;28;20032;-71
2021/03/29 05:52:45;;;;;;;1.88;0.40;;;29.60;33.40;;;;;;5099176;28;20372;-72
2021/03/29 05:55:14;;;;;;;4.95;1.02;;;29.50;36.80;;;;;;5102572;28;20062;-72
2021/03/29 05:58:05;;;;;;;3.70;0.63;;;28.90;43.00;;;;;;5104962;28;20124;-74
2021/03/29 06:00:40;;;;;;;1.67;0.68;;;28.70;44.40;;;;;;5109232;28;20054;-71
2021/03/29 06:03:37;;;;;;;4.95;0.85;;;28.00;46.80;;;;;;5104212;28;20047;-71
2021/03/29 06:06:19;;;;;;;3.28;0.57;;;27.60;49.30;;;;;;5085750;28;20126;-72
2021/03/29 06:08:49;;;;;;;2.97;0.70;;;27.50;49.60;;;;;;5104566;28;20421;-75
2021/03/29 06:11:52;;;;;;;3.10;0.98;;;27.50;49.40;;;;;;5105543;28;20027;-72
2021/03/29 06:14:22;;;;;;;4.50;0.60;;;27.50;50.00;;;;;;5018591;28;23107;-74
2021/03/29 06:16:53;;;;;;;4.00;0.73;;;27.40;50.50;;;;;;5088937;28;20115;-73
2021/03/29 06:19:42;;;;;;;5.63;1.25;;;27.10;50.20;;;;;;5101871;28;20032;-73
2021/03/29 06:22:31;;;;;;;3.85;1.10;;;27.10;50.60;;;;;;5097509;28;20543;-70
2021/03/29 06:24:58;;;;;;;3.17;0.60;;;27.10;50.60;;;;;;5099165;27;20039;-70
2021/03/29 06:27:31;;;;;;;2.03;0.50;;;27.10;50.00;;;;;;5097095;27;20101;-73
2021/03/29 06:30:13;;;;;;;4.20;0.75;;;27.10;49.50;;;;;;5092636;27;20036;-72
2021/03/29 06:32:59;;;;;;;6.93;0.88;;;26.90;50.10;;;;;;5090776;27;20035;-70
2021/03/29 06:35:28;;;;;;;;;;;26.60;50.60;;;;;;5093175;27;20038;-73
2021/03/29 06:38:05;;;;;;;1.55;0.73;;;26.50;50.70;;;;;;5097222;27;19946;-72
2021/03/29 06:40:32;;;;;;;3.83;0.73;;;26.30;51.30;;;;;;5099130;28;20046;-71
2021/03/29 06:43:00;;;;;;;4.15;0.60;;;26.20;51.70;;;;;;5095643;28;20861;-72
2021/03/29 06:45:36;;;;;;;10.63;2.25;;;26.20;52.10;;;;;;5098428;28;20126;-70
2021/03/29 06:48:04;;;;;;;12.00;2.60;;;26.10;52.20;;;;;;5100320;28;20036;-71
2021/03/29 06:50:31;;;;;;;9.30;2.10;;;26.10;52.20;;;;;;5094692;28;20118;-70
2021/03/29 06:52:59;;;;;;;8.68;1.98;;;26.10;53.00;;;;;;5096930;28;20508;-71
2021/03/29 06:55:27;;;;;;;8.68;1.92;;;26.00;52.90;;;;;;5094741;28;20878;-72
2021/03/29 06:58:08;;;;;;;6.82;1.00;;;25.90;53.50;;;;;;5094214;28;20035;-73
2021/03/29 07:00:40;;;;;;;5.07;0.85;;;25.90;54.20;;;;;;5103489;28;20106;-73
2021/03/29 07:03:12;;;;;;;5.13;1.05;;;25.80;54.10;;;;;;5101406;28;20111;-73
2021/03/29 07:05:40;;;;;;;2.90;0.73;;;25.80;54.20;;;;;;5097131;28;20076;-68
2021/03/29 07:08:08;;;;;;;5.22;1.10;;;25.60;54.90;;;;;;5096491;28;20039;-72
2021/03/29 07:10:35;;;;;;;4.63;1.77;;;25.50;55.30;;;;;;5096320;28;20035;-73
2021/03/29 07:13:03;;;;;;;3.58;0.73;;;25.40;55.70;;;;;;5094737;28;20027;-70
2021/03/29 07:15:31;;;;;;;4.00;1.08;;;25.20;55.10;;;;;;5097109;27;20481;-70
2021/03/29 07:17:59;;;;;;;3.78;0.70;;;25.00;55.40;;;;;;5099215;28;20467;-72
2021/03/29 07:20:27;;;;;;;4.57;0.50;;;24.70;56.60;;;;;;5097665;27;20084;-74
2021/03/29 07:22:55;;;;;;;4.05;1.88;;;24.60;57.40;;;;;;5103249;28;20035;-69
2021/03/29 07:25:37;;;;;;;2.53;0.65;;;24.40;57.90;;;;;;5100760;28;20030;-74
2021/03/29 07:28:10;;;;;;;2.08;0.52;;;24.10;58.90;;;;;;5105931;28;20039;-72
2021/03/29 07:30:51;;;;;;;1.58;0.50;;;23.90;60.00;;;;;;5093619;28;20036;-74
2021/03/29 07:33:20;;;;;;;3.17;0.80;;;23.80;60.60;;;;;;5092537;28;20036;-71
2021/03/29 07:35:53;;;;;;;5.78;2.65;;;23.60;61.30;;;;;;5094182;28;20103;-70
2021/03/29 07:38:47;;;;;;;5.45;1.95;;;23.40;61.20;;;;;;5072202;28;20028;-75
2021/03/29 07:41:15;;;;;;;3.47;1.40;;;23.20;61.50;;;;;;5092428;28;20032;-75
2021/03/29 07:44:12;;;;;;;6.35;3.08;;;23.10;60.80;;;;;;5094687;28;20028;-73
2021/03/29 07:46:42;;;;;;;6.30;1.80;;;22.90;61.40;;;;;;5084189;28;20367;-71
2021/03/29 07:49:46;;;;;;;5.15;1.90;;;22.80;61.30;;;;;;5096908;28;20051;-69
2021/03/29 07:52:30;;;;;;;7.63;2.85;;;22.80;61.00;;;;;;5068769;28;20066;-69
2021/03/29 07:55:00;;;;;;;2.85;0.82;;;22.70;60.60;;;;;;5095621;28;20070;-70
2021/03/29 07:57:46;;;;;;;5.72;0.60;;;22.60;60.50;;;;;;5091495;28;20502;-68
2021/03/29 08:00:27;;;;;;;3.55;0.63;;;22.50;60.60;;;;;;5075791;28;20062;-70
2021/03/29 08:02:57;;;;;;;4.38;0.60;;;22.40;60.50;;;;;;5064010;28;20028;-73
2021/03/29 08:05:41;;;;;;;3.17;0.77;;;22.30;60.60;;;;;;5081625;28;20051;-71
2021/03/29 08:11:13;;;;;;;3.88;0.60;;;22.20;60.90;;;;;;5085918;28;20115;-74
2021/03/29 08:13:41;;;;;;;2.28;0.35;;;22.00;61.10;;;;;;5094290;28;20590;-71
2021/03/29 08:16:11;;;;;;;1.50;0.45;;;22.00;61.70;;;;;;5086607;28;20043;-70
2021/03/29 08:19:14;;;;;;;2.78;0.88;;;21.90;62.10;;;;;;5096878;28;20063;-75
2021/03/29 08:22:02;;;;;;;4.38;0.75;;;21.80;62.90;;;;;;5084179;28;20467;-71
2021/03/29 08:24:43;;;;;;;2.67;1.45;;;21.80;63.70;;;;;;5086992;28;20031;-72
2021/03/29 08:27:19;;;;;;;4.72;1.27;;;21.80;63.80;;;;;;5095065;28;20040;-76
2021/03/29 08:29:53;;;;;;;4.15;1.45;;;21.70;64.10;;;;;;5102554;28;20067;-74
2021/03/29 08:32:36;;;;;;;3.50;1.50;;;21.70;64.80;;;;;;5095442;28;20443;-73
2021/03/29 08:35:21;;;;;;;4.95;2.03;;;21.60;65.20;;;;;;5101111;28;20016;-73
2021/03/29 08:37:51;;;;;;;3.40;0.68;;;21.60;65.70;;;;;;5102478;28;20028;-73
2021/03/29 08:40:28;;;;;;;2.05;1.00;;;21.60;66.20;;;;;;5101807;28;20077;-73
2021/03/29 08:43:01;;;;;;;4.00;0.77;;;21.60;66.80;;;;;;5106326;28;20027;-74
2021/03/29 08:45:32;;;;;;;3.03;0.60;;;21.50;67.30;;;;;;5107623;28;20031;-74
2021/03/29 08:48:04;;;;;;;1.40;0.40;;;21.40;68.10;;;;;;5089580;28;20035;-73
2021/03/29 08:50:35;;;;;;;2.08;0.30;;;21.50;68.20;;;;;;5110074;28;20458;-73
2021/03/29 08:53:05;;;;;;;0.55;0.30;;;21.50;68.60;;;;;;5108705;28;20056;-74
2021/03/29 08:55:36;;;;;;;1.08;0.30;;;21.50;68.90;;;;;;5110492;28;20031;-73
2021/03/29 08:58:05;;;;;;;2.45;0.50;;;21.50;69.50;;;;;;5102494;28;20020;-74
2021/03/29 09:00:43;;;;;;;2.58;0.40;;;21.40;68.90;;;;;;5106003;28;20489;-73
2021/03/29 09:03:18;;;;;;;1.88;0.40;;;21.40;69.70;;;;;;5101598;27;20077;-74
2021/03/29 09:05:45;;;;;;;2.95;0.70;;;21.40;69.00;;;;;;5106245;28;20026;-75
2021/03/29 09:08:14;;;;;;;4.20;1.83;;;21.40;70.10;;;;;;5100930;28;20489;-74
2021/03/29 09:10:43;;;;;;;2.90;0.70;;;21.30;70.10;;;;;;5102176;27;20028;-69
2021/03/29 09:13:13;;;;;;;3.97;0.70;;;21.30;70.80;;;;;;5108712;28;20031;-73
2021/03/29 09:15:43;;;;;;;2.88;0.60;;;21.20;70.90;;;;;;5110964;28;20028;-74
2021/03/29 09:18:24;;;;;;;4.32;0.75;;;21.20;71.20;;;;;;5104491;28;20646;-74
2021/03/29 09:20:53;;;;;;;2.40;0.70;;;21.10;71.70;;;;;;5097196;27;20156;-76
2021/03/29 09:23:28;;;;;;;4.88;0.95;;;21.10;72.20;;;;;;5103776;27;20038;-78
2021/03/29 09:25:56;;;;;;;1.58;0.45;;;21.00;72.60;;;;;;5101225;28;20020;-72
2021/03/29 09:28:45;;;;;;;3.70;0.95;;;21.00;72.70;;;;;;5108527;27;20051;-72
2021/03/29 09:31:19;;;;;;;3.33;0.63;;;20.90;73.50;;;;;;5099603;27;20127;-75
2021/03/29 09:33:47;;;;;;;5.47;0.77;;;20.80;73.80;;;;;;5107934;27;20028;-73
2021/03/29 09:36:20;;;;;;;6.47;0.50;;;20.80;74.30;;;;;;5103646;28;20054;-73
2021/03/29 09:38:55;;;;;;;4.95;1.15;;;20.80;74.20;;;;;;5110367;27;20019;-73
2021/03/29 09:41:32;;;;;;;2.38;0.80;;;20.70;74.50;;;;;;5098910;27;20078;-73
2021/03/29 09:44:07;;;;;;;4.65;0.95;;;20.60;75.10;;;;;;5107380;28;20039;-75
2021/03/29 09:46:35;;;;;;;4.47;0.60;;;20.60;75.70;;;;;;5103818;27;20425;-75
2021/03/29 09:49:12;;;;;;;3.83;0.80;;;20.60;76.20;;;;;;5086351;28;20361;-75
2021/03/29 09:51:41;;;;;;;2.67;1.33;;;20.60;76.30;;;;;;5104776;27;20381;-73
2021/03/29 09:54:26;;;;;;;3.42;0.88;;;20.50;77.00;;;;;;5107524;28;20043;-76
2021/03/29 09:56:58;;;;;;;2.70;1.10;;;20.60;77.20;;;;;;5101358;27;20028;-74
2021/03/29 09:59:31;;;;;;;2.47;0.50;;;20.60;77.40;;;;;;5092099;28;20034;-75
2021/03/29 10:01:58;;;;;;;6.68;1.27;;;20.60;77.70;;;;;;5086492;28;20034;-76
2021/03/29 10:04:26;;;;;;;4.55;0.63;;;20.60;77.90;;;;;;5098951;27;20035;-76
2021/03/29 10:06:59;;;;;;;3.78;0.77;;;20.70;78.00;;;;;;5102792;28;20036;-75
2021/03/29 10:09:35;;;;;;;6.45;1.38;;;20.70;78.20;;;;;;5100670;27;20057;-72
2021/03/29 10:12:04;;;;;;;4.70;0.77;;;20.70;78.40;;;;;;5100624;28;20038;-76
2021/03/29 10:14:39;;;;;;;4.68;1.67;;;20.70;78.80;;;;;;5101006;28;20438;-75
2021/03/29 10:17:21;;;;;;;6.28;1.10;;;20.70;78.90;;;;;;5107376;28;20496;-74
2021/03/29 10:19:49;;;;;;;2.95;0.70;;;20.70;79.10;;;;;;5101199;27;20121;-75
2021/03/29 10:22:19;;;;;;;4.18;0.63;;;20.80;79.10;;;;;;5103239;27;20112;-76
2021/03/29 10:25:13;;;;;;;4.90;0.82;;;20.80;79.30;;;;;;5100590;27;20027;-75
2021/03/29 10:27:47;;;;;;;9.80;1.38;;;20.70;79.50;;;;;;5104969;28;20032;-73
2021/03/29 10:30:20;;;;;;;13.93;2.80;;;20.80;79.70;;;;;;5109018;28;20035;-71
2021/03/29 10:32:52;;;;;;;17.17;2.85;;;20.80;79.70;;;;;;5102214;28;20031;-72
2021/03/29 10:35:24;;;;;;;12.00;1.83;;;20.70;80.00;;;;;;5099669;27;20016;-73
2021/03/29 10:38:03;;;;;;;19.13;2.95;;;20.80;80.40;;;;;;5084538;28;20028;-67
2021/03/29 10:40:30;;;;;;;17.52;2.50;;;20.80;80.30;;;;;;5105256;28;20043;-72
2021/03/29 10:42:58;;;;;;;14.05;3.00;;;20.80;80.20;;;;;;5113579;28;20023;-73
2021/03/29 10:45:25;;;;;;;13.95;1.67;;;20.80;80.20;;;;;;5110993;28;20024;-72
2021/03/29 10:47:53;;;;;;;8.10;1.40;;;20.80;80.00;;;;;;5107525;28;20417;-75
2021/03/29 10:50:22;;;;;;;9.82;1.60;;;20.80;79.40;;;;;;5096265;28;20024;-75
2021/03/29 10:52:50;;;;;;;3.75;0.90;;;20.80;79.50;;;;;;5106420;28;20024;-74
2021/03/29 10:55:20;;;;;;;3.00;1.08;;;20.80;79.50;;;;;;5104560;27;20030;-75
2021/03/29 10:57:47;;;;;;;4.10;1.10;;;20.70;79.70;;;;;;5102136;28;20039;-74
2021/03/29 11:00:15;;;;;;;2.85;0.70;;;20.80;79.70;;;;;;5102717;28;20648;-74
2021/03/29 11:02:42;;;;;;;2.58;0.90;;;20.70;79.90;;;;;;5098099;28;20334;-74
2021/03/29 11:05:11;;;;;;;1.95;0.80;;;20.70;80.00;;;;;;5099849;28;20107;-73
2021/03/29 11:07:38;;;;;;;4.78;0.90;;;20.70;79.90;;;;;;5101423;28;20032;-73
2021/03/29 11:10:06;;;;;;;1.48;0.75;;;20.60;79.90;;;;;;5105432;28;20497;-76
2021/03/29 11:12:40;;;;;;;2.25;0.65;;;20.60;79.20;;;;;;5102077;27;20382;-74
2021/03/29 11:15:09;;;;;;;2.75;0.50;;;20.60;79.30;;;;;;5097318;27;20100;-75
2021/03/29 11:17:38;;;;;;;2.53;0.65;;;20.50;79.60;;;;;;5107312;28;20022;-75
2021/03/29 11:20:07;;;;;;;1.63;0.90;;;20.50;79.40;;;;;;5105224;28;20156;-69
2021/03/29 11:22:37;;;;;;;3.15;0.60;;;20.40;79.90;;;;;;5097193;28;20427;-70
2021/03/29 11:25:06;;;;;;;2.67;0.60;;;20.30;80.10;;;;;;5103673;28;20339;-71
2021/03/29 11:27:34;;;;;;;3.28;0.52;;;20.20;80.20;;;;;;5108799;28;20046;-71
2021/03/29 11:30:03;;;;;;;3.75;1.13;;;20.10;80.50;;;;;;5106994;28;20046;-70
2021/03/29 11:32:30;;;;;;;6.57;1.50;;;20.10;80.50;;;;;;5103923;28;20042;-70
2021/03/29 11:34:58;;;;;;;6.32;0.80;;;20.10;80.50;;;;;;5101452;28;20036;-71
2021/03/29 11:37:25;;;;;;;1.85;0.93;;;20.10;80.90;;;;;;5109503;28;20470;-70
2021/03/29 11:39:52;;;;;;;3.25;0.70;;;20.10;80.80;;;;;;5107920;28;20044;-69
2021/03/29 11:42:20;;;;;;;1.63;0.70;;;20.00;80.70;;;;;;5107664;28;20024;-70
2021/03/29 11:44:48;;;;;;;1.65;0.77;;;20.00;81.00;;;;;;5081969;28;20043;-69
2021/03/29 11:47:15;;;;;;;5.72;1.65;;;20.00;81.20;;;;;;5095119;28;20446;-70
2021/03/29 11:49:42;;;;;;;3.95;1.05;;;20.00;81.30;;;;;;5102341;28;20335;-71
2021/03/29 11:52:10;;;;;;;4.22;1.08;;;20.10;80.90;;;;;;5096755;28;20713;-69
2021/03/29 11:54:37;;;;;;;7.97;1.75;;;20.10;80.70;;;;;;5097263;28;20037;-68
2021/03/29 11:57:05;;;;;;;7.03;1.30;;;20.10;80.40;;;;;;5095335;28;20026;-70
2021/03/29 11:59:42;;;;;;;12.07;2.50;;;20.00;80.50;;;;;;5084843;28;20047;-70
2021/03/29 12:02:19;;;;;;;7.05;2.30;;;20.10;80.60;;;;;;5103924;28;20111;-68
2021/03/29 12:05:07;;;;;;;6.07;1.63;;;20.10;80.40;;;;;;5093646;28;20026;-69
2021/03/29 12:07:49;;;;;;;4.97;1.58;;;20.10;80.30;;;;;;5102469;28;20051;-69
2021/03/29 12:13:06;;;;;;;7.75;1.65;;;20.10;80.30;;;;;;5107185;28;20057;-68
2021/03/29 12:15:35;;;;;;;5.93;1.05;;;20.10;80.20;;;;;;5104388;28;20776;-69
2021/03/29 12:18:02;;;;;;;7.15;1.50;;;20.10;80.20;;;;;;5106013;28;20366;-70
2021/03/29 12:20:30;;;;;;;5.55;1.50;;;20.00;80.10;;;;;;5095719;28;20046;-72
2021/03/29 12:22:59;;;;;;;3.75;1.25;;;20.00;80.50;;;;;;5098605;28;20020;-74
2021/03/29 12:25:27;;;;;;;5.95;1.63;;;20.10;80.70;;;;;;5099162;28;20023;-72
2021/03/29 12:27:55;;;;;;;3.92;1.33;;;20.10;80.60;;;;;;5105370;27;20035;-72
2021/03/29 12:30:23;;;;;;;5.13;1.20;;;20.10;80.90;;;;;;5106190;27;20406;-73
2021/03/29 12:32:51;;;;;;;6.18;1.20;;;20.00;80.80;;;;;;5101025;28;20093;-72
2021/03/29 12:35:22;;;;;;;4.50;1.58;;;20.00;80.50;;;;;;5106850;27;20050;-74
2021/03/29 12:37:52;;;;;;;7.70;2.17;;;20.00;81.00;;;;;;5104808;28;20420;-71
2021/03/29 12:40:22;;;;;;;6.07;0.90;;;19.90;80.60;;;;;;5105790;28;20050;-74
2021/03/29 12:43:03;;;;;;;8.32;1.95;;;20.00;80.90;;;;;;5107994;28;20036;-73
2021/03/29 12:45:32;;;;;;;10.43;1.88;;;20.00;81.00;;;;;;5101071;28;20389;-70
2021/03/29 12:48:06;;;;;;;5.43;1.58;;;19.90;81.10;;;;;;5101751;28;20066;-72
2021/03/29 12:50:34;;;;;;;5.65;1.42;;;19.90;81.30;;;;;;5112538;28;20020;-71
2021/03/29 12:53:03;;;;;;;7.18;2.40;;;19.90;81.30;;;;;;5110493;28;20032;-71
2021/03/29 12:55:31;;;;;;;11.02;2.17;;;19.90;81.70;;;;;;5106801;28;20020;-74
2021/03/29 12:57:59;;;;;;;5.80;1.35;;;19.80;81.20;;;;;;5109997;28;20024;-68
2021/03/29 13:00:29;;;;;;;7.95;1.83;;;19.80;81.10;;;;;;5104428;28;20031;-69
2021/03/29 13:02:59;;;;;;;6.28;1.63;;;19.70;81.40;;;;;;5107811;28;20145;-71
2021/03/29 13:08:06;;;;;;;14.50;3.17;;;19.70;82.00;;;;;;5109055;28;20027;-72
2021/03/29 13:13:05;;;;;;;8.20;1.50;;;19.70;81.80;;;;;;5103970;28;20107;-71
2021/03/29 13:15:33;;;;;;;6.07;2.08;;;19.70;81.60;;;;;;5108438;28;20129;-68
2021/03/29 13:18:01;;;;;;;11.02;2.10;;;19.70;81.40;;;;;;5108207;28;20026;-72
2021/03/29 13:20:29;;;;;;;10.05;2.90;;;19.70;81.90;;;;;;5112232;28;20110;-71